createdAt,value
2018-03-27T00:00:52.572Z,38.40
2018-03-27T00:03:20.922Z,36.37
2018-03-27T00:05:49.620Z,37.63
2018-03-27T00:08:18.143Z,37.60
2018-03-27T00:10:46.539Z,39.73
2018-03-27T00:13:15.156Z,39.80
2018-03-27T00:15:44.434Z,38.93
2018-03-27T00:18:14.137Z,42.20
2018-03-27T00:20:42.600Z,36.90
2018-03-27T00:23:10.956Z,39.73
2018-03-27T00:25:39.494Z,42.57
2018-03-27T00:28:19.623Z,43.63
2018-03-27T00:30:59.891Z,42.13
2018-03-27T00:33:40.365Z,40.37
2018-03-27T00:36:21.071Z,37.03
2018-03-27T00:39:01.436Z,44.03
2018-03-27T00:44:43.030Z,45.10
2018-03-27T00:47:12.241Z,39.70
2018-03-27T00:49:40.735Z,43.80
2018-03-27T00:52:09.517Z,43.03
2018-03-27T00:54:37.968Z,43.20
2018-03-27T00:57:06.393Z,43.00
2018-03-27T00:59:34.868Z,40.63
2018-03-27T01:02:03.470Z,43.23
2018-03-27T01:04:32.060Z,48.37
2018-03-27T01:07:00.395Z,46.17
2018-03-27T01:09:28.765Z,44.07
2018-03-27T01:11:57.176Z,40.90
2018-03-27T01:14:25.653Z,40.30
2018-03-27T01:16:54.002Z,48.23
2018-03-27T01:19:23.345Z,46.10
2018-03-27T01:21:51.724Z,47.67
2018-03-27T01:24:20.237Z,46.53
2018-03-27T01:26:48.586Z,47.10
2018-03-27T01:29:17.123Z,43.80
2018-03-27T01:31:45.752Z,41.73
2018-03-27T01:34:14.647Z,44.73
2018-03-27T01:36:43.301Z,42.77
2018-03-27T01:39:11.795Z,46.17
2018-03-27T01:41:40.240Z,43.00
2018-03-27T01:44:08.739Z,44.73
2018-03-27T01:46:37.848Z,50.90
2018-03-27T01:49:06.269Z,43.60
2018-03-27T01:51:34.681Z,47.43
2018-03-27T01:54:03.195Z,48.47
2018-03-27T01:56:32.480Z,53.63
2018-03-27T01:59:01.675Z,48.63
2018-03-27T02:01:30.108Z,48.20
2018-03-27T02:03:58.520Z,44.60
2018-03-27T02:06:27.348Z,47.57
2018-03-27T02:08:55.719Z,45.97
2018-03-27T02:11:29.902Z,49.93
2018-03-27T02:14:04.668Z,49.63
2018-03-27T02:16:38.657Z,48.73
2018-03-27T02:19:13.597Z,45.73
2018-03-27T02:21:41.568Z,45.80
2018-03-27T02:24:10.841Z,53.90
2018-03-27T02:26:39.208Z,48.63
2018-03-27T02:29:07.624Z,47.10
2018-03-27T02:31:35.978Z,49.80
2018-03-27T02:34:04.731Z,46.70
2018-03-27T02:36:34.021Z,48.93
2018-03-27T02:39:02.505Z,52.17
2018-03-27T02:41:30.880Z,54.07
2018-03-27T02:43:59.366Z,50.37
2018-03-27T02:46:27.727Z,50.90
2018-03-27T02:48:56.106Z,47.87
2018-03-27T02:51:24.495Z,43.60
2018-03-27T02:53:53.187Z,46.80
2018-03-27T02:56:21.738Z,51.57
2018-03-27T02:58:51.020Z,50.13
2018-03-27T03:01:19.568Z,53.03
2018-03-27T03:03:48.121Z,55.53
2018-03-27T03:06:16.689Z,48.63
2018-03-27T03:08:45.813Z,54.10
2018-03-27T03:11:14.302Z,57.50
2018-03-27T03:13:43.539Z,51.90
2018-03-27T03:16:12.453Z,53.33
2018-03-27T03:18:43.002Z,58.13
2018-03-27T03:21:12.120Z,53.17
2018-03-27T03:23:41.121Z,51.43
2018-03-27T03:26:09.813Z,59.60
2018-03-27T03:28:38.153Z,55.90
2018-03-27T03:31:07.988Z,60.80
2018-03-27T03:33:36.347Z,63.63
2018-03-27T03:36:04.682Z,56.30
2018-03-27T03:38:33.171Z,60.47
2018-03-27T03:41:01.762Z,58.80
2018-03-27T03:43:30.161Z,58.23
2018-03-27T03:45:58.577Z,65.43
2018-03-27T03:48:27.054Z,57.90
2018-03-27T03:50:55.471Z,55.57
2018-03-27T03:53:23.890Z,56.60
2018-03-27T03:55:53.181Z,60.97
2018-03-27T03:58:21.637Z,63.57
2018-03-27T04:00:50.070Z,58.47
2018-03-27T04:03:18.761Z,59.03
2018-03-27T04:05:47.083Z,60.87
2018-03-27T04:08:15.781Z,62.27
2018-03-27T04:10:44.290Z,55.30
2018-03-27T04:13:12.939Z,56.00
2018-03-27T04:15:42.130Z,60.80
2018-03-27T04:18:10.698Z,58.53
2018-03-27T04:20:39.687Z,57.43
2018-03-27T04:23:08.199Z,54.67
2018-03-27T04:25:36.662Z,57.93
2018-03-27T04:28:05.014Z,57.57
2018-03-27T04:30:33.476Z,55.70
2018-03-27T04:33:02.791Z,57.80
2018-03-27T04:35:31.373Z,57.53
2018-03-27T04:37:59.719Z,57.50
2018-03-27T04:40:28.282Z,55.07
2018-03-27T04:42:56.790Z,55.43
2018-03-27T04:45:25.166Z,52.50
2018-03-27T04:47:53.512Z,53.13
2018-03-27T04:50:21.873Z,58.23
2018-03-27T04:52:50.337Z,59.07
2018-03-27T04:55:18.760Z,56.13
2018-03-27T04:57:47.156Z,54.97
2018-03-27T05:00:15.576Z,58.23
2018-03-27T05:02:44.151Z,56.07
2018-03-27T05:05:12.587Z,63.60
2018-03-27T05:07:40.933Z,68.90
2018-03-27T05:10:09.430Z,59.57
2018-03-27T05:12:37.772Z,57.73
2018-03-27T05:15:06.283Z,62.80
2018-03-27T05:17:34.624Z,61.37
2018-03-27T05:20:03.069Z,56.30
2018-03-27T05:22:31.553Z,58.33
2018-03-27T05:24:59.889Z,59.27
2018-03-27T05:27:29.162Z,60.07
2018-03-27T05:29:57.499Z,58.07
2018-03-27T05:32:26.039Z,59.13
2018-03-27T05:34:54.779Z,58.63
2018-03-27T05:37:23.213Z,56.93
2018-03-27T05:39:51.668Z,60.93
2018-03-27T05:42:20.860Z,58.67
2018-03-27T05:44:50.003Z,57.00
2018-03-27T05:47:18.349Z,61.13
2018-03-27T05:49:46.804Z,61.20
2018-03-27T05:52:15.169Z,60.47
2018-03-27T05:54:43.506Z,68.23
2018-03-27T05:57:11.890Z,58.43
2018-03-27T05:59:40.695Z,56.60
2018-03-27T06:02:09.058Z,56.77
2018-03-27T06:04:37.391Z,60.57
2018-03-27T06:07:05.804Z,57.00
2018-03-27T06:09:34.152Z,50.43
2018-03-27T06:12:03.252Z,52.17
2018-03-27T06:14:32.356Z,54.03
2018-03-27T06:17:01.456Z,52.97
2018-03-27T06:19:30.560Z,51.87
2018-03-27T06:21:58.970Z,53.67
2018-03-27T06:24:27.340Z,48.50
2018-03-27T06:26:55.688Z,50.40
2018-03-27T06:29:24.776Z,47.43
2018-03-27T06:31:53.904Z,52.90
2018-03-27T06:34:22.284Z,49.97
2018-03-27T06:36:50.664Z,51.93
2018-03-27T06:39:19.047Z,48.60
2018-03-27T06:41:47.435Z,46.60
2018-03-27T06:44:15.771Z,50.40
2018-03-27T06:46:44.796Z,48.17
2018-03-27T06:49:13.147Z,51.27
2018-03-27T06:51:42.231Z,48.47
2018-03-27T06:54:11.372Z,48.83
2018-03-27T06:56:39.752Z,47.83
2018-03-27T06:59:08.120Z,53.30
2018-03-27T07:01:37.208Z,49.47
2018-03-27T07:04:05.597Z,50.97
2018-03-27T07:06:34.086Z,47.67
2018-03-27T07:09:02.588Z,49.33
2018-03-27T07:11:30.924Z,50.87
2018-03-27T07:14:00.068Z,50.20
2018-03-27T07:16:28.397Z,46.87
2018-03-27T07:18:57.500Z,45.90
2018-03-27T07:21:25.848Z,44.63
2018-03-27T07:23:54.276Z,48.60
2018-03-27T07:26:22.629Z,45.17
2018-03-27T07:28:51.730Z,42.97
2018-03-27T07:31:20.923Z,44.27
2018-03-27T07:33:50.049Z,42.60
2018-03-27T07:36:19.040Z,47.93
2018-03-27T07:38:47.423Z,44.67
2018-03-27T07:41:15.785Z,41.77
2018-03-27T07:43:44.141Z,46.83
2018-03-27T07:46:13.253Z,57.63
2018-03-27T07:48:41.601Z,45.37
2018-03-27T07:51:09.972Z,42.67
2018-03-27T07:53:38.316Z,40.27
2018-03-27T07:56:06.690Z,41.97
2018-03-27T07:58:35.873Z,41.03
2018-03-27T08:01:04.232Z,34.40
2018-03-27T08:03:32.625Z,35.90
2018-03-27T08:06:00.944Z,39.47
2018-03-27T08:08:29.288Z,36.50
2018-03-27T08:10:58.413Z,35.67
2018-03-27T08:13:26.782Z,37.97
2018-03-27T08:15:55.180Z,41.60
2018-03-27T08:18:23.539Z,42.20
2018-03-27T08:20:51.872Z,26.87
2018-03-27T08:23:20.410Z,27.93
2018-03-27T08:25:48.742Z,23.90
2018-03-27T08:28:17.878Z,24.83
2018-03-27T08:30:46.248Z,21.90
2018-03-27T08:33:14.609Z,24.97
2018-03-27T08:35:43.783Z,23.87
2018-03-27T08:38:12.139Z,36.07
2018-03-27T08:40:40.485Z,28.53
2018-03-27T08:43:08.884Z,28.90
2018-03-27T08:45:37.418Z,25.97
2018-03-27T08:48:06.541Z,25.67
2018-03-27T08:50:34.935Z,22.93
2018-03-27T08:53:03.270Z,27.27
2018-03-27T08:55:32.389Z,23.57
2018-03-27T08:58:00.728Z,19.80
2018-03-27T09:00:29.140Z,22.70
2018-03-27T09:02:57.534Z,24.00
2018-03-27T09:05:25.981Z,28.93
2018-03-27T09:07:55.113Z,25.47
2018-03-27T09:10:23.443Z,25.33
2018-03-27T09:12:51.805Z,26.83
2018-03-27T09:15:20.155Z,28.67
2018-03-27T09:17:48.530Z,29.13
2018-03-27T09:20:16.864Z,28.50
2018-03-27T09:22:45.212Z,26.27
2018-03-27T09:25:13.681Z,29.90
2018-03-27T09:27:42.030Z,24.07
2018-03-27T09:30:10.921Z,25.67
2018-03-27T09:32:39.269Z,24.53
2018-03-27T09:35:07.613Z,23.17
2018-03-27T09:37:35.993Z,20.33
2018-03-27T09:40:04.343Z,23.23
2018-03-27T09:42:32.702Z,19.77
2018-03-27T09:45:01.809Z,14.93
2018-03-27T09:47:30.162Z,15.27
2018-03-27T09:49:58.600Z,16.33
2018-03-27T09:52:26.960Z,13.93
2018-03-27T09:54:56.228Z,13.77
2018-03-27T09:57:25.381Z,12.73
2018-03-27T09:59:53.727Z,9.17
2018-03-27T10:02:22.078Z,11.10
2018-03-27T10:04:50.425Z,8.93
2018-03-27T10:07:18.770Z,7.83
2018-03-27T10:09:47.146Z,6.03
2018-03-27T10:12:15.489Z,8.70
2018-03-27T10:14:43.831Z,7.13
2018-03-27T10:17:13.119Z,5.78
2018-03-27T10:19:41.499Z,6.60
2018-03-27T10:22:10.000Z,4.47
2018-03-27T10:24:39.244Z,3.20
2018-03-27T10:27:07.652Z,4.65
2018-03-27T10:29:36.010Z,3.97
2018-03-27T10:32:05.123Z,5.20
2018-03-27T10:34:33.509Z,7.87
2018-03-27T10:37:01.893Z,8.73
2018-03-27T10:39:30.306Z,6.93
2018-03-27T10:41:58.628Z,6.35
2018-03-27T10:44:26.997Z,6.12
2018-03-27T10:46:56.101Z,8.10
2018-03-27T10:49:25.220Z,5.75
2018-03-27T10:51:53.707Z,7.15
2018-03-27T10:54:22.033Z,6.62
2018-03-27T10:56:50.469Z,5.28
2018-03-27T10:59:18.856Z,6.00
2018-03-27T11:01:47.178Z,4.03
2018-03-27T11:04:15.609Z,6.30
2018-03-27T11:06:44.144Z,4.30
2018-03-27T11:09:12.468Z,4.93
2018-03-27T11:11:40.813Z,4.70
2018-03-27T11:14:09.941Z,3.92
2018-03-27T11:16:38.272Z,5.05
2018-03-27T11:19:07.400Z,5.85
2018-03-27T11:21:35.747Z,5.85
2018-03-27T11:24:04.168Z,4.37
2018-03-27T11:26:32.557Z,4.57
2018-03-27T11:29:00.945Z,4.37
2018-03-27T11:31:29.467Z,4.65
2018-03-27T11:33:57.892Z,5.00
2018-03-27T11:36:26.274Z,4.97
2018-03-27T11:38:54.648Z,5.07
2018-03-27T11:41:23.032Z,4.60
2018-03-27T11:43:51.859Z,4.57
2018-03-27T11:46:20.199Z,3.95
2018-03-27T11:48:48.577Z,4.30
2018-03-27T11:51:16.957Z,4.20
2018-03-27T11:53:45.304Z,21.37
2018-03-27T11:56:14.423Z,5.90
2018-03-27T11:58:42.762Z,6.37
2018-03-27T12:01:11.205Z,4.80
2018-03-27T12:03:39.683Z,6.60
2018-03-27T12:06:08.174Z,8.00
2018-03-27T12:08:36.835Z,6.33
2018-03-27T12:11:05.168Z,7.80
2018-03-27T12:13:33.510Z,7.17
2018-03-27T12:16:01.869Z,5.80
2018-03-27T12:18:30.431Z,6.03
2018-03-27T12:20:58.731Z,5.97
2018-03-27T12:23:27.069Z,5.77
2018-03-27T12:25:55.450Z,7.90
2018-03-27T12:28:23.883Z,7.00
2018-03-27T12:30:52.251Z,6.40
2018-03-27T12:33:20.604Z,6.37
2018-03-27T12:35:49.019Z,8.07
2018-03-27T12:38:17.363Z,6.27
2018-03-27T12:40:45.727Z,7.50
2018-03-27T12:43:14.088Z,7.80
2018-03-27T12:45:42.430Z,6.07
2018-03-27T12:48:10.925Z,21.77
2018-03-27T12:50:39.287Z,5.67
2018-03-27T12:53:07.673Z,6.43
2018-03-27T12:55:36.019Z,10.27
2018-03-27T12:58:05.158Z,5.67
2018-03-27T13:00:33.504Z,14.67
2018-03-27T13:03:01.848Z,17.47
2018-03-27T13:05:30.217Z,12.63
2018-03-27T13:07:58.556Z,8.70
2018-03-27T13:10:27.000Z,6.87
2018-03-27T13:12:55.426Z,8.30
2018-03-27T13:15:23.807Z,6.73
2018-03-27T13:17:52.175Z,6.53
2018-03-27T13:20:20.514Z,7.83
2018-03-27T13:22:48.880Z,7.47
2018-03-27T13:25:17.216Z,8.73
2018-03-27T13:27:45.568Z,8.07
2018-03-27T13:30:14.693Z,7.93
2018-03-27T13:32:43.043Z,8.43
2018-03-27T13:35:12.141Z,9.50
2018-03-27T13:37:41.366Z,8.77
2018-03-27T13:40:09.716Z,10.23
2018-03-27T13:42:38.826Z,9.93
2018-03-27T13:45:07.177Z,10.52
2018-03-27T13:47:35.504Z,9.00
2018-03-27T13:50:03.838Z,9.40
2018-03-27T13:52:32.966Z,10.95
2018-03-27T13:55:01.352Z,9.20
2018-03-27T13:57:29.683Z,10.57
2018-03-27T13:59:58.118Z,8.85
2018-03-27T14:02:26.487Z,9.60
2018-03-27T14:04:54.836Z,10.43
2018-03-27T14:07:23.948Z,12.80
2018-03-27T14:09:52.293Z,9.50
2018-03-27T14:12:20.652Z,11.65
2018-03-27T14:14:49.002Z,10.90
2018-03-27T14:17:17.384Z,12.03
2018-03-27T14:19:45.885Z,11.00
2018-03-27T14:22:14.239Z,10.63
2018-03-27T14:24:42.591Z,10.18
2018-03-27T14:27:11.699Z,10.07
2018-03-27T14:29:40.064Z,15.23
2018-03-27T14:32:09.193Z,8.73
2018-03-27T14:34:37.596Z,9.45
2018-03-27T14:37:05.946Z,11.40
2018-03-27T14:39:34.276Z,11.77
2018-03-27T14:42:02.623Z,11.80
2018-03-27T14:44:30.993Z,10.32
2018-03-27T14:46:59.330Z,10.73
2018-03-27T14:49:28.450Z,11.77
2018-03-27T14:51:56.809Z,10.82
2018-03-27T14:54:25.928Z,10.13
2018-03-27T14:56:54.319Z,10.05
2018-03-27T14:59:22.702Z,11.07
2018-03-27T15:01:51.063Z,10.30
2018-03-27T15:04:19.453Z,12.90
2018-03-27T15:06:47.787Z,24.93
2018-03-27T15:09:16.910Z,17.97
2018-03-27T15:11:45.285Z,13.73
2018-03-27T15:14:14.407Z,11.90
2018-03-27T15:16:42.754Z,13.60
2018-03-27T15:19:11.868Z,12.83
2018-03-27T15:21:40.260Z,13.63
2018-03-27T15:24:08.595Z,22.57
2018-03-27T15:26:37.722Z,15.60
2018-03-27T15:29:06.132Z,16.30
2018-03-27T15:31:34.599Z,13.67
2018-03-27T15:34:02.972Z,13.40
2018-03-27T15:36:32.049Z,13.93
2018-03-27T15:39:01.169Z,18.30
2018-03-27T15:41:29.539Z,14.63
2018-03-27T15:43:57.937Z,13.67
2018-03-27T15:46:26.276Z,13.37
2018-03-27T15:48:55.415Z,12.33
2018-03-27T15:51:23.890Z,14.33
2018-03-27T15:53:52.253Z,14.77
2018-03-27T15:56:20.647Z,14.77
2018-03-27T15:58:49.020Z,13.10
2018-03-27T16:01:17.444Z,15.57
2018-03-27T16:03:45.806Z,16.63
2018-03-27T16:06:14.144Z,16.43
2018-03-27T16:08:42.514Z,15.23
2018-03-27T16:11:11.668Z,20.53
2018-03-27T16:13:40.033Z,30.83
2018-03-27T16:16:08.446Z,33.90
2018-03-27T16:18:37.033Z,36.33
2018-03-27T16:21:05.372Z,23.70
2018-03-27T16:23:33.743Z,17.60
2018-03-27T16:26:02.098Z,16.67
2018-03-27T16:28:30.502Z,18.10
2018-03-27T16:30:58.906Z,16.97
2018-03-27T16:33:27.380Z,18.27
2018-03-27T16:35:55.755Z,17.47
2018-03-27T16:38:24.221Z,16.57
2018-03-27T16:40:52.576Z,17.43
2018-03-27T16:43:21.679Z,15.77
2018-03-27T16:45:50.091Z,17.43
2018-03-27T16:48:18.568Z,14.40
2018-03-27T16:50:46.912Z,14.37
2018-03-27T16:53:15.259Z,12.33
2018-03-27T16:55:43.785Z,13.90
2018-03-27T16:58:12.197Z,15.33
2018-03-27T17:00:40.709Z,14.47
2018-03-27T17:03:09.131Z,15.13
2018-03-27T17:05:37.515Z,16.23
2018-03-27T17:08:05.889Z,15.53
2018-03-27T17:10:34.237Z,15.03
2018-03-27T17:13:03.384Z,17.57
2018-03-27T17:15:31.792Z,16.60
2018-03-27T17:18:00.218Z,17.33
2018-03-27T17:20:29.342Z,18.17
2018-03-27T17:22:57.919Z,17.57
2018-03-27T17:25:26.297Z,16.13
2018-03-27T17:27:54.687Z,15.77
2018-03-27T17:30:23.187Z,15.97
2018-03-27T17:32:51.637Z,16.53
2018-03-27T17:35:19.996Z,17.33
2018-03-27T17:37:49.119Z,15.73
2018-03-27T17:40:17.455Z,17.57
2018-03-27T17:42:46.577Z,16.87
2018-03-27T17:45:15.659Z,17.00
2018-03-27T17:47:44.786Z,15.77
2018-03-27T17:50:13.186Z,19.63
2018-03-27T17:52:41.645Z,18.50
2018-03-27T17:55:10.015Z,15.43
2018-03-27T17:57:38.510Z,17.37
2018-03-27T18:00:06.842Z,26.47
2018-03-27T18:02:36.057Z,25.40
2018-03-27T18:05:04.409Z,19.63
2018-03-27T18:07:32.752Z,21.30
2018-03-27T18:10:01.110Z,19.87
2018-03-27T18:12:29.625Z,18.03
2018-03-27T18:14:58.574Z,20.90
2018-03-27T18:17:26.905Z,18.17
2018-03-27T18:19:55.365Z,20.07
2018-03-27T18:22:23.700Z,18.57
2018-03-27T18:24:52.796Z,22.17
2018-03-27T18:27:21.922Z,21.37
2018-03-27T18:29:50.251Z,19.33
2018-03-27T18:32:19.393Z,24.87
2018-03-27T18:34:47.745Z,19.30
2018-03-27T18:37:16.868Z,21.50
2018-03-27T18:39:45.216Z,20.53
2018-03-27T18:42:14.357Z,23.10
2018-03-27T18:44:42.711Z,20.43
2018-03-27T18:47:11.117Z,22.30
2018-03-27T18:49:39.554Z,21.03
2018-03-27T18:52:08.683Z,33.93
2018-03-27T18:54:37.025Z,27.57
2018-03-27T18:57:06.206Z,21.63
2018-03-27T18:59:34.523Z,20.80
2018-03-27T19:02:02.936Z,20.47
2018-03-27T19:04:31.404Z,23.10
2018-03-27T19:06:59.746Z,25.30
2018-03-27T19:09:28.869Z,20.80
2018-03-27T19:11:57.265Z,22.77
2018-03-27T19:14:25.631Z,21.43
2018-03-27T19:16:53.981Z,21.20
2018-03-27T19:19:23.119Z,21.10
2018-03-27T19:21:51.489Z,21.33
2018-03-27T19:24:19.954Z,23.23
2018-03-27T19:26:49.403Z,23.53
2018-03-27T19:29:17.724Z,23.90
2018-03-27T19:31:46.830Z,21.67
2018-03-27T19:34:15.229Z,22.37
2018-03-27T19:36:43.982Z,24.27
2018-03-27T19:39:13.173Z,21.60
2018-03-27T19:41:42.286Z,22.80
2018-03-27T19:44:10.692Z,25.03
2018-03-27T19:46:39.041Z,23.70
2018-03-27T19:49:08.464Z,25.17
2018-03-27T19:51:36.798Z,24.93
2018-03-27T19:54:05.706Z,24.97
2018-03-27T19:56:34.421Z,45.33
2018-03-27T19:59:02.824Z,33.63
2018-03-27T20:01:31.200Z,23.67
2018-03-27T20:03:59.521Z,26.77
2018-03-27T20:06:27.876Z,26.63
2018-03-27T20:08:56.216Z,25.50
2018-03-27T20:11:24.717Z,24.93
2018-03-27T20:13:53.082Z,25.83
2018-03-27T20:16:21.424Z,26.30
2018-03-27T20:18:50.545Z,26.43
2018-03-27T20:21:19.036Z,28.07
2018-03-27T20:23:47.404Z,29.87
2018-03-27T20:26:15.804Z,23.03
2018-03-27T20:28:44.193Z,29.70
2018-03-27T20:31:12.536Z,26.87
2018-03-27T20:33:41.001Z,29.67
2018-03-27T20:36:09.389Z,25.27
2018-03-27T20:38:38.629Z,24.83
2018-03-27T20:41:06.995Z,28.93
2018-03-27T20:43:35.331Z,29.07
2018-03-27T20:46:03.773Z,30.00
2018-03-27T20:48:32.350Z,28.17
2018-03-27T20:51:00.680Z,44.20
2018-03-27T20:53:29.921Z,37.67
2018-03-27T20:55:58.293Z,27.23
2018-03-27T20:58:26.777Z,29.80
2018-03-27T21:00:55.147Z,29.43
2018-03-27T21:03:23.582Z,31.57
2018-03-27T21:05:52.025Z,28.63
2018-03-27T21:08:20.373Z,30.93
2018-03-27T21:10:48.749Z,28.70
2018-03-27T21:13:17.900Z,31.30
2018-03-27T21:15:46.244Z,32.13
2018-03-27T21:18:15.464Z,29.87
2018-03-27T21:20:43.801Z,31.60
2018-03-27T21:23:12.158Z,45.63
2018-03-27T21:25:40.501Z,47.43
2018-03-27T21:28:08.960Z,35.17
2018-03-27T21:30:37.466Z,35.80
2018-03-27T21:33:05.853Z,35.30
2018-03-27T21:35:34.192Z,33.93
2018-03-27T21:38:02.660Z,37.40
2018-03-27T21:40:31.849Z,39.67
2018-03-27T21:43:00.172Z,37.53
2018-03-27T21:45:28.524Z,37.03
2018-03-27T21:47:57.625Z,39.77
2018-03-27T21:50:26.018Z,36.70
2018-03-27T21:52:54.385Z,45.07
2018-03-27T21:55:23.605Z,41.17
2018-03-27T21:57:51.963Z,39.90
2018-03-27T22:00:20.319Z,43.23
2018-03-27T22:02:49.512Z,42.37
2018-03-27T22:05:17.878Z,43.53
2018-03-27T22:07:46.228Z,38.07
2018-03-27T22:10:14.621Z,43.80
2018-03-27T22:12:43.071Z,43.63
2018-03-27T22:15:11.464Z,45.77
2018-03-27T22:17:39.825Z,45.20
2018-03-27T22:20:08.163Z,44.83
2018-03-27T22:22:36.533Z,44.93
2018-03-27T22:25:05.119Z,46.20
2018-03-27T22:27:33.454Z,45.23
2018-03-27T22:30:01.825Z,45.43
2018-03-27T22:32:30.187Z,58.43
2018-03-27T22:34:59.023Z,47.53
2018-03-27T22:37:27.432Z,48.20
2018-03-27T22:39:55.955Z,46.87
2018-03-27T22:42:24.321Z,50.13
2018-03-27T22:44:52.822Z,49.33
2018-03-27T22:47:21.156Z,48.40
2018-03-27T22:49:49.555Z,47.07
2018-03-27T22:52:17.918Z,46.43
2018-03-27T22:54:47.804Z,48.60
2018-03-27T22:57:16.252Z,61.40
2018-03-27T22:59:44.588Z,50.47
2018-03-27T23:02:12.970Z,46.33
2018-03-27T23:04:41.390Z,44.00
2018-03-27T23:07:09.767Z,43.17
2018-03-27T23:09:38.257Z,44.30
2018-03-27T23:12:06.623Z,43.17
2018-03-27T23:14:35.041Z,42.83
2018-03-27T23:17:03.403Z,43.27
2018-03-27T23:19:31.740Z,45.40
2018-03-27T23:22:00.846Z,43.30
2018-03-27T23:24:30.574Z,41.70
2018-03-27T23:26:58.915Z,42.20
2018-03-27T23:29:28.048Z,44.50
2018-03-27T23:31:56.392Z,41.77
2018-03-27T23:34:25.547Z,43.63
2018-03-27T23:36:53.889Z,41.27
2018-03-27T23:39:22.237Z,44.63
2018-03-27T23:41:50.778Z,43.13
2018-03-27T23:44:19.263Z,43.47
2018-03-27T23:46:47.599Z,39.70
2018-03-27T23:49:16.724Z,45.90
2018-03-27T23:51:45.087Z,43.97
2018-03-27T23:54:13.504Z,43.93
2018-03-27T23:56:41.867Z,43.63
2018-03-27T23:59:10.205Z,46.73
